This is the latest recevied weather packets stored in our database for station/object DG3GAI-6. If no packets are shown the sender has not sent any weather packets the latest 10 day(s).
| Time | Temp. | Humidity | Pressure | Rain* | Wind** | Luminosity | Snow |
|---|---|---|---|---|---|---|---|
| 1777918221 | 15.56° C | 68% | 1017 hPa | - | - | - | - |
| 1777916414 | 15.56° C | 65% | 1017 hPa | - | - | - | - |
| 1777914607 | 15.56° C | 62% | 1017 hPa | - | - | - | - |
| 1777912800 | 15.56° C | 60% | 1017 hPa | - | - | - | - |
| 1777910992 | 16.11° C | 57% | 1017 hPa | - | - | - | - |
| 1777909185 | 16.11° C | 57% | 1017 hPa | - | - | - | - |
| 1777907378 | 16.11° C | 56% | 1017 hPa | - | - | - | - |
| 1777905570 | 16.11° C | 55% | 1017 hPa | - | - | - | - |
| 1777903763 | 16.11° C | 59% | 1017 hPa | - | - | - | - |
| 1777901956 | 16.11° C | 61% | 1017 hPa | - | - | - | - |
| 1777900148 | 16.11° C | 51% | 1017 hPa | - | - | - | - |
| 1777898341 | 16.11° C | 49% | 1017 hPa | - | - | - | - |
| 1777896534 | 15.56° C | 50% | 1017 hPa | - | - | - | - |
| 1777892919 | 15.56° C | 49% | 1017 hPa | - | - | - | - |
| 1777891112 | 15° C | 51% | 1018 hPa | - | - | - | - |
| 1777889305 | 15° C | 53% | 1018 hPa | - | - | - | - |
| 1777887498 | 14.44° C | 54% | 1018 hPa | - | - | - | - |
| 1777885690 | 13.89° C | 55% | 1018 hPa | - | - | - | - |
| 1777883883 | 13.89° C | 54% | 1018 hPa | - | - | - | - |
| 1777882076 | 13.89° C | 54% | 1018 hPa | - | - | - | - |
| 1777880268 | 13.33° C | 58% | 1018 hPa | - | - | - | - |
| 1777878461 | 12.78° C | 66% | 1018 hPa | - | - | - | - |
| 1777876654 | 12.22° C | 67% | 1018 hPa | - | - | - | - |
| 1777874847 | 12.22° C | 66% | 1018 hPa | - | - | - | - |
| 1777873039 | 11.67° C | 66% | 1018 hPa | - | - | - | - |
* Rain since midnight (hover to see other rain measurements)
** Current wind speed in m/s (hover to see current wind gust speed)